Wind Surf — C6I06 — position and weather

sailwx.info

Track history (hours):
 
Tides and Currents Weather Stations Pressure Air Temp Water Temp Dewpoint Dewpoint Depression Visibility Wind Speed Wind Dir Waves Ship Positions

Wind Surf

Last reported at 2017-Oct-16 03:41 UTC. Time now 2017-Oct-17 06:16 UTC.
Position N 40°30' E 014°09'.

Length 180 m; draft 5.4 m.

Type: Passenger vessel. MMSI: 309242000.

Date/timePositionNaut miles runAvg speedWind from/ knotsBaromVisibWave heightAir tempDewpointWater temp
2017-Oct-16 03:41N 40°30' E 014°09'1 6.6
2017-Oct-16 03:30N 40°29' E 014°09'4 6.7
2017-Oct-16 02:58N 40°25' E 014°12'11 0.4
2017-Oct-14 21:42N 40°36' E 014°13'8 2.6
2017-Oct-14 18:48N 40°38' E 014°23'0 0.1
2017-Oct-14 18:30N 40°38' E 014°23'0 0.0
2017-Oct-14 18:00N 40°38' E 014°23'0 0.0
2017-Oct-14 17:30N 40°38' E 014°23'0 0.0
2017-Oct-14 17:00N 40°38' E 014°23'0 0.0
2017-Oct-14 16:21N 40°38' E 014°23'0 0.1
2017-Oct-14 15:51N 40°38' E 014°23'0 0.0
2017-Oct-14 15:30N 40°38' E 014°23'0 0.0
2017-Oct-14 14:54N 40°38' E 014°23'0 0.0
2017-Oct-14 14:24N 40°38' E 014°23'0 0.0
2017-Oct-14 13:54N 40°38' E 014°23'0 0.0
2017-Oct-14 13:24N 40°38' E 014°23'0 0.0
2017-Oct-14 12:54N 40°38' E 014°23'0 0.0
2017-Oct-14 12:24N 40°38' E 014°23'0 0.0
2017-Oct-14 11:57N 40°38' E 014°23'0 0.0
2017-Oct-14 11:27N 40°38' E 014°23'0 0.0
2017-Oct-14 10:57N 40°38' E 014°23'0 0.0
2017-Oct-14 10:27N 40°38' E 014°23'0 0.0
2017-Oct-14 09:57N 40°38' E 014°23'0 0.0
2017-Oct-14 09:27N 40°38' E 014°23'0 0.0
2017-Oct-14 08:57N 40°38' E 014°23'0 0.0
2017-Oct-14 08:30N 40°38' E 014°23'0 0.1
2017-Oct-14 08:00N 40°38' E 014°23'0 0.0
2017-Oct-14 07:30N 40°38' E 014°23'0 0.5
2017-Oct-14 07:00N 40°39' E 014°23'4 8.4
2017-Oct-14 06:30N 40°40' E 014°18'610.6
2017-Oct-14 05:56N 40°39' E 014°10'  
2017-Oct-11 18:58N 40°38' E 014°23'0 0.0
2017-Oct-11 18:28N 40°38' E 014°23'0 0.0
2017-Oct-11 17:58N 40°38' E 014°23'0 0.0
2017-Oct-11 17:13N 40°38' E 014°23'0 0.1
2017-Oct-11 16:58N 40°38' E 014°23'133 3.7
2017-Oct-10 05:24N 38°28' E 014°58'2 3.8
2017-Oct-10 04:59N 38°29' E 014°60'10 6.4
2017-Oct-10 03:24N 38°30' E 014°47'51 8.9
2017-Oct-09 21:44N 38°22' E 013°43'3 9.1
2017-Oct-09 21:23N 38°21' E 013°39'3 9.3
2017-Oct-09 21:00N 38°20' E 013°34'5 9.3
2017-Oct-09 20:30N 38°20' E 013°29'5 9.3
2017-Oct-09 20:01N 38°19' E 013°23'5 9.4
2017-Oct-09 19:31N 38°18' E 013°17'5 9.3
2017-Oct-09 19:00N 38°17' E 013°11'5 9.0
2017-Oct-09 18:30N 38°17' E 013°05'5 9.1
2017-Oct-09 18:01N 38°16' E 012°60'84 2.1
2017-Oct-08 02:26N 36°59' E 013°42'3 7.3
2017-Oct-08 02:00N 36°57' E 013°44'4 7.2
2017-Oct-08 01:30N 36°53' E 013°47'4 7.2
2017-Oct-08 00:56N 36°50' E 013°50'4 7.5
2017-Oct-08 00:24N 36°47' E 013°53'6 7.5
2017-Oct-07 23:36N 36°42' E 013°56'1 7.5
2017-Oct-07 23:30N 36°41' E 013°57'16 7.3
2017-Oct-07 21:19N 36°28' E 014°08'3 7.6
2017-Oct-07 20:59N 36°25' E 014°10'4 7.7
2017-Oct-07 20:25N 36°22' E 014°12'3 7.6
2017-Oct-07 20:00N 36°19' E 014°14'4 7.6
2017-Oct-07 19:30N 36°16' E 014°17'3 6.7
2017-Oct-07 19:00N 36°13' E 014°19'4 7.5
2017-Oct-07 18:30N 36°10' E 014°22'4 7.6
2017-Oct-07 18:00N 36°07' E 014°24'4 7.9
2017-Oct-07 17:30N 36°03' E 014°27'4 7.9
2017-Oct-07 17:00N 35°60' E 014°29'4 7.7
2017-Oct-07 16:30N 35°56' E 014°31'2 0.1
2017-Oct-06 05:11N 35°54' E 014°32'2 9.6
2017-Oct-06 05:00N 35°55' E 014°33'4 7.6
2017-Oct-06 04:30N 35°59' E 014°36'4 8.2
2017-Oct-06 04:00N 36°02' E 014°39'  
Track history (hours):
 
Tides and Currents Weather Stations Pressure Air Temp Water Temp Dewpoint Dewpoint Depression Visibility Wind Speed Wind Dir Waves Ship Positions

Wind Surf

Last reported at 2017-Oct-16 03:41 UTC. Time now 2017-Oct-17 06:16 UTC.
Position N 40°30' E 014°09'.

Length 180 m; draft 5.4 m.

Type: Passenger vessel. MMSI: 309242000.

Date/timePositionNaut miles runAvg speedWind from/ knotsBaromVisibWave heightAir tempDewpointWater temp
2017-Oct-16 03:41N 40°30' E 014°09'1 6.6
2017-Oct-16 03:30N 40°29' E 014°09'4 6.7
2017-Oct-16 02:58N 40°25' E 014°12'11 0.4
2017-Oct-14 21:42N 40°36' E 014°13'8 2.6
2017-Oct-14 18:48N 40°38' E 014°23'0 0.1
2017-Oct-14 18:30N 40°38' E 014°23'0 0.0
2017-Oct-14 18:00N 40°38' E 014°23'0 0.0
2017-Oct-14 17:30N 40°38' E 014°23'0 0.0
2017-Oct-14 17:00N 40°38' E 014°23'0 0.0
2017-Oct-14 16:21N 40°38' E 014°23'0 0.1
2017-Oct-14 15:51N 40°38' E 014°23'0 0.0
2017-Oct-14 15:30N 40°38' E 014°23'0 0.0
2017-Oct-14 14:54N 40°38' E 014°23'0 0.0
2017-Oct-14 14:24N 40°38' E 014°23'0 0.0
2017-Oct-14 13:54N 40°38' E 014°23'0 0.0
2017-Oct-14 13:24N 40°38' E 014°23'0 0.0
2017-Oct-14 12:54N 40°38' E 014°23'0 0.0
2017-Oct-14 12:24N 40°38' E 014°23'0 0.0
2017-Oct-14 11:57N 40°38' E 014°23'0 0.0
2017-Oct-14 11:27N 40°38' E 014°23'0 0.0
2017-Oct-14 10:57N 40°38' E 014°23'0 0.0
2017-Oct-14 10:27N 40°38' E 014°23'0 0.0
2017-Oct-14 09:57N 40°38' E 014°23'0 0.0
2017-Oct-14 09:27N 40°38' E 014°23'0 0.0
2017-Oct-14 08:57N 40°38' E 014°23'0 0.0
2017-Oct-14 08:30N 40°38' E 014°23'0 0.1
2017-Oct-14 08:00N 40°38' E 014°23'0 0.0
2017-Oct-14 07:30N 40°38' E 014°23'0 0.5
2017-Oct-14 07:00N 40°39' E 014°23'4 8.4
2017-Oct-14 06:30N 40°40' E 014°18'610.6
2017-Oct-14 05:56N 40°39' E 014°10'  
2017-Oct-11 18:58N 40°38' E 014°23'0 0.0
2017-Oct-11 18:28N 40°38' E 014°23'0 0.0
2017-Oct-11 17:58N 40°38' E 014°23'0 0.0
2017-Oct-11 17:13N 40°38' E 014°23'0 0.1
2017-Oct-11 16:58N 40°38' E 014°23'133 3.7
2017-Oct-10 05:24N 38°28' E 014°58'2 3.8
2017-Oct-10 04:59N 38°29' E 014°60'10 6.4
2017-Oct-10 03:24N 38°30' E 014°47'51 8.9
2017-Oct-09 21:44N 38°22' E 013°43'3 9.1
2017-Oct-09 21:23N 38°21' E 013°39'3 9.3
2017-Oct-09 21:00N 38°20' E 013°34'5 9.3
2017-Oct-09 20:30N 38°20' E 013°29'5 9.3
2017-Oct-09 20:01N 38°19' E 013°23'5 9.4
2017-Oct-09 19:31N 38°18' E 013°17'5 9.3
2017-Oct-09 19:00N 38°17' E 013°11'5 9.0
2017-Oct-09 18:30N 38°17' E 013°05'5 9.1
2017-Oct-09 18:01N 38°16' E 012°60'84 2.1
2017-Oct-08 02:26N 36°59' E 013°42'3 7.3
2017-Oct-08 02:00N 36°57' E 013°44'4 7.2
2017-Oct-08 01:30N 36°53' E 013°47'4 7.2
2017-Oct-08 00:56N 36°50' E 013°50'4 7.5
2017-Oct-08 00:24N 36°47' E 013°53'6 7.5
2017-Oct-07 23:36N 36°42' E 013°56'1 7.5
2017-Oct-07 23:30N 36°41' E 013°57'16 7.3
2017-Oct-07 21:19N 36°28' E 014°08'3 7.6
2017-Oct-07 20:59N 36°25' E 014°10'4 7.7
2017-Oct-07 20:25N 36°22' E 014°12'3 7.6
2017-Oct-07 20:00N 36°19' E 014°14'4 7.6
2017-Oct-07 19:30N 36°16' E 014°17'3 6.7
2017-Oct-07 19:00N 36°13' E 014°19'4 7.5
2017-Oct-07 18:30N 36°10' E 014°22'4 7.6
2017-Oct-07 18:00N 36°07' E 014°24'4 7.9
2017-Oct-07 17:30N 36°03' E 014°27'4 7.9
2017-Oct-07 17:00N 35°60' E 014°29'4 7.7
2017-Oct-07 16:30N 35°56' E 014°31'2 0.1
2017-Oct-06 05:11N 35°54' E 014°32'2 9.6
2017-Oct-06 05:00N 35°55' E 014°33'4 7.6
2017-Oct-06 04:30N 35°59' E 014°36'4 8.2
2017-Oct-06 04:00N 36°02' E 014°39'  

Dump ship's entire track history